createdAt,value
2022-08-12T00:00:14.736Z,17.96
2022-08-12T00:02:02.857Z,17.90
2022-08-12T00:03:20.669Z,17.91
2022-08-12T00:04:42.002Z,18.00
2022-08-12T00:06:04.832Z,18.01
2022-08-12T00:07:27.121Z,18.13
2022-08-12T00:08:50.827Z,18.01
2022-08-12T00:10:12.066Z,17.93
2022-08-12T00:11:33.853Z,17.89
2022-08-12T00:12:54.971Z,17.91
2022-08-12T00:14:15.816Z,17.83
2022-08-12T00:15:38.601Z,17.80
2022-08-12T00:16:59.416Z,17.74
2022-08-12T00:18:23.838Z,17.75
2022-08-12T00:19:46.203Z,17.80
2022-08-12T00:21:06.792Z,17.65
2022-08-12T00:22:28.881Z,17.62
2022-08-12T00:23:49.609Z,17.65
2022-08-12T00:25:17.336Z,17.60
2022-08-12T00:26:41.157Z,17.62
2022-08-12T00:28:04.724Z,17.56
2022-08-12T00:29:26.673Z,17.53
2022-08-12T00:30:47.815Z,17.56
2022-08-12T00:32:08.789Z,17.57
2022-08-12T00:33:38.609Z,17.55
2022-08-12T00:35:13.370Z,17.61
2022-08-12T00:36:36.072Z,17.68
2022-08-12T00:37:59.023Z,17.67
2022-08-12T00:39:19.780Z,17.75
2022-08-12T00:40:42.515Z,17.71
2022-08-12T00:42:04.812Z,17.80
2022-08-12T00:43:10.624Z,17.80
2022-08-12T00:44:15.651Z,17.81
2022-08-12T00:45:20.751Z,17.78
2022-08-12T00:46:33.516Z,17.78
2022-08-12T00:47:37.890Z,17.83
2022-08-12T00:48:42.093Z,17.84
2022-08-12T00:49:44.959Z,17.87
2022-08-12T00:50:56.250Z,17.85
2022-08-12T00:52:07.006Z,17.87
2022-08-12T00:53:09.759Z,18.03
2022-08-12T00:54:11.963Z,17.91
2022-08-12T00:55:14.938Z,17.96
2022-08-12T00:56:18.397Z,18.00
2022-08-12T00:57:23.799Z,17.90
2022-08-12T00:58:29.078Z,17.88
2022-08-12T00:59:32.793Z,17.88
2022-08-12T01:00:35.917Z,17.80
2022-08-12T01:02:11.411Z,17.78
2022-08-12T01:03:03.466Z,17.80
2022-08-12T01:04:27.881Z,17.85
2022-08-12T01:05:50.371Z,18.04
2022-08-12T01:07:17.020Z,17.88
2022-08-12T01:08:38.026Z,17.99
2022-08-12T01:10:07.340Z,17.94
2022-08-12T01:11:29.108Z,18.05
2022-08-12T01:12:32.453Z,18.09
2022-08-12T01:13:37.313Z,18.17
2022-08-12T01:14:41.772Z,18.09
2022-08-12T01:15:46.979Z,17.99
2022-08-12T01:16:49.443Z,18.05
2022-08-12T01:17:53.778Z,18.05
2022-08-12T01:19:00.417Z,18.05
2022-08-12T01:20:08.315Z,18.11
2022-08-12T01:21:19.484Z,18.05
2022-08-12T01:22:50.707Z,18.07
2022-08-12T01:24:28.113Z,18.02
2022-08-12T01:25:55.807Z,18.00
2022-08-12T01:27:00.339Z,17.92
2022-08-12T01:28:02.743Z,17.93
2022-08-12T01:29:08.061Z,17.86
2022-08-12T01:30:13.411Z,17.81
2022-08-12T01:31:19.476Z,17.81
2022-08-12T01:32:29.499Z,17.85
2022-08-12T01:33:46.531Z,17.72
2022-08-12T01:35:15.546Z,17.53
2022-08-12T01:36:23.340Z,17.51
2022-08-12T01:37:26.758Z,17.45
2022-08-12T01:38:36.028Z,17.51
2022-08-12T01:40:35.259Z,17.42
2022-08-12T01:41:12.464Z,17.43
2022-08-12T01:42:19.799Z,17.41
2022-08-12T01:44:49.143Z,17.42
2022-08-12T01:46:09.112Z,17.36
2022-08-12T01:47:24.245Z,17.33
2022-08-12T01:48:59.083Z,17.37
2022-08-12T01:51:00.422Z,17.38
2022-08-12T01:52:20.720Z,17.30
2022-08-12T01:53:50.476Z,17.28
2022-08-12T01:54:56.593Z,17.23
2022-08-12T01:56:02.314Z,17.17
2022-08-12T01:57:12.807Z,17.22
2022-08-12T01:58:58.550Z,17.31
2022-08-12T02:00:12.957Z,17.36
2022-08-12T02:01:16.617Z,17.38
2022-08-12T02:02:39.967Z,17.43
2022-08-12T02:04:28.494Z,17.44
2022-08-12T02:06:03.454Z,17.55
2022-08-12T02:07:43.501Z,17.63
2022-08-12T02:09:15.445Z,17.70
2022-08-12T02:11:21.244Z,17.87
2022-08-12T02:13:01.292Z,17.68
2022-08-12T02:14:44.958Z,17.75
2022-08-12T02:16:00.125Z,17.74
2022-08-12T02:17:54.548Z,17.64
2022-08-12T02:19:28.862Z,17.68
2022-08-12T02:20:51.762Z,17.68
2022-08-12T02:23:42.460Z,17.87
2022-08-12T02:24:46.681Z,17.85
2022-08-12T02:25:50.972Z,17.87
2022-08-12T02:26:58.372Z,17.97
2022-08-12T02:28:09.431Z,18.29
2022-08-12T02:29:17.002Z,18.73
2022-08-12T02:30:26.820Z,18.72
2022-08-12T02:33:29.117Z,19.18
2022-08-12T02:34:35.873Z,19.28
2022-08-12T02:41:50.238Z,20.85
2022-08-12T02:50:45.495Z,22.01
2022-08-12T02:51:48.325Z,22.21
2022-08-12T02:52:55.440Z,22.51
2022-08-12T02:54:08.959Z,23.02
2022-08-12T02:55:28.172Z,22.95
2022-08-12T02:56:36.564Z,23.19
2022-08-12T02:57:41.512Z,23.42
2022-08-12T02:58:46.401Z,23.27
2022-08-12T02:59:50.919Z,23.57
2022-08-12T03:00:53.804Z,23.54
2022-08-12T03:02:00.007Z,23.62
2022-08-12T03:03:07.214Z,23.61
2022-08-12T03:04:20.197Z,23.71
2022-08-12T03:05:25.146Z,24.02
2022-08-12T03:06:38.972Z,24.40
2022-08-12T03:07:59.108Z,24.16
2022-08-12T03:09:05.465Z,23.92
2022-08-12T03:10:16.022Z,23.95
2022-08-12T03:11:41.649Z,23.14
2022-08-12T03:12:49.789Z,22.56
2022-08-12T03:14:00.395Z,21.94
2022-08-12T03:15:06.935Z,21.60
2022-08-12T03:16:12.409Z,21.40
2022-08-12T03:17:24.618Z,21.04
2022-08-12T03:18:28.739Z,20.82
2022-08-12T03:19:31.615Z,20.49
2022-08-12T03:20:43.250Z,20.26
2022-08-12T03:21:52.891Z,20.24
2022-08-12T03:23:17.363Z,19.99
2022-08-12T03:24:32.393Z,19.85
2022-08-12T03:25:38.948Z,19.84
2022-08-12T03:26:45.031Z,19.77
2022-08-12T03:27:52.226Z,19.65
2022-08-12T03:28:58.260Z,19.72
2022-08-12T03:30:01.694Z,19.78
2022-08-12T03:32:01.807Z,19.77
2022-08-12T03:33:07.253Z,19.83
2022-08-12T03:34:13.637Z,19.77
2022-08-12T03:35:40.153Z,19.86
2022-08-12T03:36:42.777Z,19.91
2022-08-12T03:37:46.076Z,19.89
2022-08-12T03:39:10.776Z,19.86
2022-08-12T03:40:35.322Z,20.00
2022-08-12T03:41:45.233Z,20.12
2022-08-12T03:43:07.819Z,20.04
2022-08-12T03:44:53.517Z,19.94
2022-08-12T03:46:17.762Z,20.07
2022-08-12T03:47:52.609Z,19.90
2022-08-12T03:49:15.908Z,19.86
2022-08-12T03:50:44.186Z,19.80
2022-08-12T03:52:05.831Z,19.60
2022-08-12T03:53:30.707Z,19.81
2022-08-12T03:54:51.458Z,19.90
2022-08-12T03:56:13.556Z,20.06
2022-08-12T03:57:34.174Z,19.99
2022-08-12T03:58:56.206Z,20.21
2022-08-12T04:00:24.224Z,20.24
2022-08-12T04:01:27.935Z,20.74
2022-08-12T04:02:31.248Z,22.00
2022-08-12T04:03:53.801Z,22.85
2022-08-12T04:04:59.333Z,24.04
2022-08-12T04:06:01.782Z,24.70
2022-08-12T04:07:09.407Z,25.16
2022-08-12T04:08:12.033Z,25.66
2022-08-12T04:09:16.466Z,26.59
2022-08-12T04:10:20.345Z,27.25
2022-08-12T04:11:46.845Z,27.54
2022-08-12T04:13:18.940Z,28.53
2022-08-12T04:14:21.384Z,29.22
2022-08-12T04:15:29.351Z,29.86
2022-08-12T04:16:31.802Z,29.86
2022-08-12T04:17:35.352Z,29.53
2022-08-12T04:18:41.686Z,28.49
2022-08-12T04:19:46.838Z,28.69
2022-08-12T04:20:50.295Z,29.23
2022-08-12T04:22:01.734Z,29.81
2022-08-12T04:23:08.780Z,29.77
2022-08-12T04:24:11.585Z,30.42
2022-08-12T04:25:14.104Z,30.75
2022-08-12T04:26:16.569Z,31.36
2022-08-12T04:27:20.647Z,31.38
2022-08-12T04:28:28.265Z,31.50
2022-08-12T04:30:21.126Z,31.11
2022-08-12T04:30:52.804Z,31.56
2022-08-12T04:31:57.044Z,31.96
2022-08-12T04:33:03.528Z,32.52
2022-08-12T04:34:10.130Z,32.79
2022-08-12T04:35:14.415Z,33.29
2022-08-12T04:36:18.014Z,33.26
2022-08-12T04:37:21.512Z,33.34
2022-08-12T04:38:24.592Z,32.83
2022-08-12T04:39:27.869Z,32.75
2022-08-12T04:40:41.389Z,32.90
2022-08-12T04:41:52.475Z,34.15
2022-08-12T04:43:02.861Z,34.44
2022-08-12T04:44:07.063Z,34.98
2022-08-12T04:45:09.822Z,34.67
2022-08-12T04:46:16.719Z,35.25
2022-08-12T04:47:22.351Z,34.20
2022-08-12T04:48:24.608Z,33.83
2022-08-12T04:49:28.510Z,34.89
2022-08-12T04:50:36.139Z,35.18
2022-08-12T04:51:40.708Z,35.43
2022-08-12T04:52:43.017Z,35.35
2022-08-12T04:53:47.385Z,35.65
2022-08-12T04:54:50.666Z,36.12
2022-08-12T04:55:53.363Z,36.76
2022-08-12T04:57:04.317Z,36.53
2022-08-12T04:58:09.939Z,36.36
2022-08-12T04:59:15.933Z,36.90
2022-08-12T05:00:20.594Z,36.84
2022-08-12T05:01:28.055Z,37.54
2022-08-12T05:02:31.185Z,37.95
2022-08-12T05:03:46.551Z,38.22
2022-08-12T05:05:00.780Z,38.15
2022-08-12T05:06:04.455Z,38.22
2022-08-12T05:07:10.092Z,39.27
2022-08-12T05:08:22.736Z,38.11
2022-08-12T05:09:24.951Z,38.64
2022-08-12T05:10:48.179Z,39.47
2022-08-12T05:11:54.139Z,39.25
2022-08-12T05:13:00.099Z,38.63
2022-08-12T05:14:19.578Z,38.62
2022-08-12T05:15:29.331Z,37.25
2022-08-12T05:16:34.091Z,36.91
2022-08-12T05:17:38.105Z,36.56
2022-08-12T05:18:40.609Z,36.56
2022-08-12T05:19:48.183Z,36.09
2022-08-12T05:20:52.161Z,36.67
2022-08-12T05:21:55.309Z,37.92
2022-08-12T05:23:27.748Z,39.06
2022-08-12T05:24:30.134Z,38.20
2022-08-12T05:25:32.583Z,38.46
2022-08-12T05:26:35.187Z,38.17
2022-08-12T05:27:37.406Z,39.47
2022-08-12T05:28:39.726Z,39.43
2022-08-12T05:30:07.353Z,39.09
2022-08-12T05:31:05.798Z,38.56
2022-08-12T05:32:08.927Z,39.48
2022-08-12T05:33:12.672Z,39.47
2022-08-12T05:34:14.887Z,40.21
2022-08-12T05:35:17.039Z,39.87
2022-08-12T05:36:20.138Z,39.69
2022-08-12T05:37:23.050Z,40.47
2022-08-12T05:38:45.473Z,40.34
2022-08-12T05:39:47.908Z,41.45
2022-08-12T05:40:51.434Z,41.11
2022-08-12T05:41:53.821Z,40.95
2022-08-12T05:42:56.532Z,40.73
2022-08-12T05:44:00.142Z,40.93
2022-08-12T05:45:05.572Z,40.90
2022-08-12T05:46:08.142Z,40.11
2022-08-12T05:47:15.008Z,40.27
2022-08-12T05:48:19.791Z,39.38
2022-08-12T05:49:22.026Z,40.18
2022-08-12T05:50:24.661Z,41.08
2022-08-12T05:51:41.094Z,39.67
2022-08-12T05:52:44.351Z,39.26
2022-08-12T05:53:46.964Z,39.88
2022-08-12T05:54:57.584Z,39.32
2022-08-12T05:56:00.546Z,39.90
2022-08-12T05:57:06.498Z,39.45
2022-08-12T05:58:09.537Z,39.60
2022-08-12T05:59:12.514Z,40.12
2022-08-12T06:00:18.044Z,40.12
2022-08-12T06:02:11.715Z,38.91
2022-08-12T06:02:49.836Z,37.92
2022-08-12T06:03:53.752Z,37.60
2022-08-12T06:05:00.552Z,36.79
2022-08-12T06:06:03.472Z,37.55
2022-08-12T06:07:59.600Z,38.17
2022-08-12T06:08:31.724Z,37.51
2022-08-12T06:09:36.693Z,38.23
2022-08-12T06:10:38.791Z,39.74
2022-08-12T06:11:53.994Z,39.95
2022-08-12T06:13:08.069Z,39.90
2022-08-12T06:14:11.935Z,40.13
2022-08-12T06:15:14.454Z,40.31
2022-08-12T06:16:22.307Z,39.52
2022-08-12T06:17:24.621Z,39.81
2022-08-12T06:18:29.868Z,39.68
2022-08-12T06:20:26.538Z,39.66
2022-08-12T06:20:57.773Z,40.65
2022-08-12T06:22:02.303Z,39.53
2022-08-12T06:23:05.906Z,40.04
2022-08-12T06:24:09.725Z,39.34
2022-08-12T06:25:22.086Z,40.25
2022-08-12T06:26:25.513Z,40.82
2022-08-12T06:27:27.757Z,40.65
2022-08-12T06:28:31.076Z,40.39
2022-08-12T06:30:06.740Z,40.58
2022-08-12T06:31:24.394Z,39.82
2022-08-12T06:32:21.700Z,39.67
2022-08-12T06:33:55.520Z,40.45
2022-08-12T06:35:26.142Z,40.74
2022-08-12T06:36:32.541Z,41.38
2022-08-12T06:37:40.519Z,40.67
2022-08-12T06:38:48.039Z,40.86
2022-08-12T06:39:50.371Z,41.72
2022-08-12T06:41:15.778Z,42.31
2022-08-12T06:42:36.837Z,41.86
2022-08-12T06:44:05.725Z,41.25
2022-08-12T06:45:02.468Z,40.46
2022-08-12T06:46:05.860Z,41.11
2022-08-12T06:47:07.918Z,40.33
2022-08-12T06:48:11.385Z,40.90
2022-08-12T06:49:14.160Z,40.95
2022-08-12T06:50:16.637Z,40.59
2022-08-12T06:51:20.879Z,40.30
2022-08-12T06:52:25.131Z,40.65
2022-08-12T06:53:28.030Z,40.62
2022-08-12T06:54:32.377Z,40.95
2022-08-12T06:55:34.696Z,40.10
2022-08-12T06:58:07.277Z,40.95
2022-08-12T06:59:14.347Z,40.40
2022-08-12T07:00:27.980Z,39.94
2022-08-12T07:01:38.124Z,39.84
2022-08-12T07:02:40.447Z,39.96
2022-08-12T07:03:42.878Z,40.14
2022-08-12T07:04:45.933Z,40.28
2022-08-12T07:05:48.485Z,40.46
2022-08-12T07:06:55.906Z,39.82
2022-08-12T07:08:05.124Z,40.74
2022-08-12T07:09:16.265Z,40.88
2022-08-12T07:10:39.511Z,39.68
2022-08-12T07:11:44.402Z,39.87
2022-08-12T07:12:55.180Z,38.26
2022-08-12T07:14:12.885Z,38.60
2022-08-12T07:15:16.708Z,39.03
2022-08-12T07:16:20.727Z,38.21
2022-08-12T07:17:22.850Z,37.13
2022-08-12T07:18:29.026Z,37.91
2022-08-12T07:19:45.112Z,38.00
2022-08-12T07:20:53.247Z,35.44
2022-08-12T07:22:01.930Z,35.31
2022-08-12T07:23:05.765Z,36.27
2022-08-12T07:24:07.923Z,36.09
2022-08-12T07:25:28.680Z,36.72
2022-08-12T07:26:30.860Z,37.22
2022-08-12T07:27:40.799Z,37.18
2022-08-12T07:28:44.268Z,37.15
2022-08-12T07:30:02.627Z,36.78
2022-08-12T07:31:12.516Z,38.16
2022-08-12T07:32:23.798Z,37.14
2022-08-12T07:33:28.448Z,37.33
2022-08-12T07:34:30.529Z,37.85
2022-08-12T07:35:33.702Z,38.35
2022-08-12T07:36:35.724Z,37.53
2022-08-12T07:37:44.952Z,37.29
2022-08-12T07:38:49.192Z,37.88
2022-08-12T07:39:59.554Z,36.68
2022-08-12T07:41:15.588Z,37.34
2022-08-12T07:42:20.295Z,37.38
2022-08-12T07:43:22.653Z,37.92
2022-08-12T07:44:25.902Z,38.60
2022-08-12T07:45:27.970Z,39.00
2022-08-12T07:46:37.100Z,37.71
2022-08-12T07:47:46.095Z,37.96
2022-08-12T07:48:50.169Z,37.30
2022-08-12T07:50:05.264Z,38.32
2022-08-12T07:51:24.694Z,38.02
2022-08-12T07:52:29.278Z,38.71
2022-08-12T07:53:31.529Z,37.93
2022-08-12T07:54:33.780Z,38.04
2022-08-12T07:55:37.057Z,37.89
2022-08-12T07:56:41.019Z,37.81
2022-08-12T07:57:59.593Z,37.90
2022-08-12T07:59:03.320Z,38.08
2022-08-12T08:00:06.446Z,38.32
2022-08-12T08:01:15.945Z,39.16
2022-08-12T08:02:17.987Z,39.89
2022-08-12T08:03:20.151Z,40.08
2022-08-12T08:04:40.624Z,39.67
2022-08-12T08:05:50.041Z,38.64
2022-08-12T08:06:53.092Z,39.51
2022-08-12T08:08:01.949Z,39.22
2022-08-12T08:09:05.555Z,38.70
2022-08-12T08:10:11.054Z,38.78
2022-08-12T08:11:31.840Z,37.81
2022-08-12T08:12:52.668Z,38.29
2022-08-12T08:14:00.276Z,37.54
2022-08-12T08:15:02.336Z,38.20
2022-08-12T08:16:05.971Z,38.61
2022-08-12T08:17:10.585Z,37.85
2022-08-12T08:18:26.470Z,37.04
2022-08-12T08:19:31.326Z,36.93
2022-08-12T08:20:39.738Z,35.32
2022-08-12T08:21:43.028Z,35.41
2022-08-12T08:22:45.420Z,35.20
2022-08-12T08:24:06.824Z,35.20
2022-08-12T08:25:20.126Z,34.71
2022-08-12T08:26:36.480Z,36.49
2022-08-12T08:27:45.799Z,37.04
2022-08-12T08:28:48.509Z,37.49
2022-08-12T08:29:54.002Z,37.60
2022-08-12T08:30:56.138Z,36.98
2022-08-12T08:32:01.585Z,37.24
2022-08-12T08:33:15.520Z,37.04
2022-08-12T08:34:53.697Z,36.51
2022-08-12T08:35:56.726Z,36.79
2022-08-12T08:37:00.008Z,36.98
2022-08-12T08:38:14.992Z,36.96
2022-08-12T08:39:34.917Z,36.90
2022-08-12T08:40:57.805Z,37.00
2022-08-12T08:42:20.565Z,36.62
2022-08-12T08:43:23.050Z,36.90
2022-08-12T08:44:26.452Z,37.14
2022-08-12T08:45:28.593Z,36.93
2022-08-12T08:46:33.445Z,35.96
2022-08-12T08:47:44.322Z,36.47
2022-08-12T08:48:46.474Z,36.04
2022-08-12T08:49:48.527Z,36.58
2022-08-12T08:51:04.334Z,35.77
2022-08-12T08:52:09.864Z,35.65
2022-08-12T08:53:12.690Z,35.83
2022-08-12T08:54:15.381Z,35.85
2022-08-12T08:55:25.562Z,35.35
2022-08-12T08:56:43.088Z,35.38
2022-08-12T08:57:51.165Z,35.59
2022-08-12T08:58:53.697Z,35.24
2022-08-12T08:59:55.897Z,35.48
2022-08-12T09:00:59.593Z,35.09
2022-08-12T09:02:02.636Z,35.32
2022-08-12T09:03:15.556Z,35.19
2022-08-12T09:05:14.633Z,35.45
2022-08-12T09:06:02.247Z,35.36
2022-08-12T09:07:17.462Z,35.25
2022-08-12T09:08:29.984Z,35.58
2022-08-12T09:10:01.605Z,35.60
2022-08-12T09:11:00.167Z,35.67
2022-08-12T09:12:27.380Z,36.00
2022-08-12T09:14:12.960Z,35.68
2022-08-12T09:14:54.942Z,35.48
2022-08-12T09:15:59.451Z,35.90
2022-08-12T09:17:01.786Z,35.54
2022-08-12T09:18:08.960Z,35.52
2022-08-12T09:19:26.790Z,34.74
2022-08-12T09:20:33.875Z,35.12
2022-08-12T09:21:54.792Z,34.26
2022-08-12T09:22:58.918Z,34.55
2022-08-12T09:24:07.495Z,34.75
2022-08-12T09:25:11.191Z,34.53
2022-08-12T09:26:31.737Z,33.97
2022-08-12T09:27:57.599Z,34.13
2022-08-12T09:29:02.667Z,33.97
2022-08-12T09:30:18.254Z,33.76
2022-08-12T09:32:03.514Z,32.57
2022-08-12T09:33:15.143Z,32.56
2022-08-12T09:34:33.750Z,32.37
2022-08-12T09:35:44.469Z,31.77
2022-08-12T09:36:58.262Z,31.98
2022-08-12T09:38:03.990Z,31.43
2022-08-12T09:40:02.413Z,31.57
2022-08-12T09:40:57.596Z,31.81
2022-08-12T09:42:35.799Z,31.88
2022-08-12T09:44:01.253Z,31.63
2022-08-12T09:45:24.529Z,31.56
2022-08-12T09:46:53.299Z,31.44
2022-08-12T09:47:59.681Z,31.22
2022-08-12T09:49:03.894Z,31.21
2022-08-12T09:50:07.647Z,31.36
2022-08-12T09:51:22.907Z,31.30
2022-08-12T09:52:25.088Z,31.35
2022-08-12T09:53:36.399Z,31.33
2022-08-12T09:54:43.023Z,31.10
2022-08-12T09:56:05.277Z,31.26
2022-08-12T09:58:46.096Z,31.26
2022-08-12T09:59:10.579Z,30.71
2022-08-12T10:00:28.274Z,30.60
2022-08-12T10:01:35.307Z,30.44
2022-08-12T10:03:32.085Z,30.47
2022-08-12T10:04:36.359Z,30.22
2022-08-12T10:06:20.570Z,30.20
2022-08-12T10:07:13.709Z,30.10
2022-08-12T10:08:30.715Z,30.37
2022-08-12T10:09:58.748Z,30.17
2022-08-12T10:11:20.013Z,30.24
2022-08-12T10:12:41.799Z,30.06
2022-08-12T10:13:46.921Z,29.91
2022-08-12T10:14:53.843Z,30.05
2022-08-12T10:16:03.000Z,29.78
2022-08-12T10:17:08.815Z,29.86
2022-08-12T10:18:12.588Z,29.71
2022-08-12T10:19:17.407Z,29.93
2022-08-12T10:20:20.561Z,29.91
2022-08-12T10:21:35.570Z,29.91
2022-08-12T10:22:41.228Z,29.67
2022-08-12T10:23:51.665Z,29.68
2022-08-12T10:25:18.229Z,29.59
2022-08-12T10:26:40.201Z,29.85
2022-08-12T10:28:03.927Z,29.63
2022-08-12T10:30:02.816Z,29.86
2022-08-12T10:30:58.914Z,29.93
2022-08-12T10:32:21.754Z,29.95
2022-08-12T10:33:31.469Z,29.86
2022-08-12T10:34:35.079Z,29.57
2022-08-12T10:35:37.995Z,29.55
2022-08-12T10:36:44.585Z,29.53
2022-08-12T10:38:34.557Z,29.47
2022-08-12T10:40:00.847Z,29.45
2022-08-12T10:40:57.481Z,29.46
2022-08-12T10:42:29.603Z,29.24
2022-08-12T10:43:55.005Z,29.00
2022-08-12T10:45:05.760Z,29.31
2022-08-12T10:48:19.164Z,29.10
2022-08-12T10:50:00.870Z,28.93
2022-08-12T10:50:56.192Z,29.11
2022-08-12T10:52:33.143Z,29.21
2022-08-12T10:53:19.473Z,29.08
2022-08-12T10:54:27.004Z,29.09
2022-08-12T10:55:29.359Z,29.17
2022-08-12T10:56:34.208Z,29.11
2022-08-12T10:58:12.617Z,28.98
2022-08-12T10:59:00.171Z,28.79
2022-08-12T11:00:30.624Z,28.79
2022-08-12T11:04:20.168Z,28.68
2022-08-12T11:04:24.117Z,28.72
2022-08-12T11:04:35.377Z,28.82
2022-08-12T11:07:02.721Z,28.65
2022-08-12T11:08:34.094Z,28.68
2022-08-12T11:08:37.662Z,28.61
2022-08-12T11:09:56.881Z,28.58
2022-08-12T11:11:14.117Z,28.66
2022-08-12T11:12:56.544Z,28.74
2022-08-12T11:13:46.964Z,28.71
2022-08-12T11:14:52.357Z,28.72
2022-08-12T11:16:03.542Z,28.69
2022-08-12T11:17:43.169Z,28.78
2022-08-12T11:18:42.416Z,28.93
2022-08-12T11:19:45.720Z,28.92
2022-08-12T11:20:49.369Z,28.92
2022-08-12T11:21:58.197Z,28.87
2022-08-12T11:23:25.688Z,28.99
2022-08-12T11:24:31.733Z,28.75
2022-08-12T11:25:58.105Z,28.78
2022-08-12T11:27:00.232Z,28.66
2022-08-12T11:28:02.417Z,28.61
2022-08-12T11:29:22.686Z,28.71
2022-08-12T11:30:31.283Z,28.81
2022-08-12T11:31:56.392Z,28.86
2022-08-12T11:32:59.670Z,28.55
2022-08-12T11:34:05.822Z,28.72
2022-08-12T11:35:24.604Z,28.67
2022-08-12T11:36:26.907Z,28.70
2022-08-12T11:37:29.299Z,28.74
2022-08-12T11:38:31.729Z,28.78
2022-08-12T11:40:03.549Z,28.75
2022-08-12T11:40:56.882Z,28.86
2022-08-12T11:42:02.996Z,28.89
2022-08-12T11:43:20.063Z,28.90
2022-08-12T11:44:35.136Z,28.70
2022-08-12T11:45:39.807Z,28.65
2022-08-12T11:46:52.777Z,28.48
2022-08-12T11:48:03.371Z,28.19
2022-08-12T11:49:06.383Z,28.22
2022-08-12T11:50:11.900Z,28.31
2022-08-12T11:51:22.834Z,28.38
2022-08-12T11:52:51.322Z,28.37
2022-08-12T11:53:57.431Z,28.25
2022-08-12T11:55:00.817Z,28.06
2022-08-12T11:56:06.669Z,27.94
2022-08-12T11:58:13.098Z,28.07
2022-08-12T12:00:23.983Z,28.17
2022-08-12T12:02:04.751Z,28.26
2022-08-12T12:02:43.523Z,28.37
2022-08-12T12:03:48.833Z,28.36
2022-08-12T12:04:52.263Z,28.35
2022-08-12T12:05:55.549Z,28.43
2022-08-12T12:07:07.106Z,28.58
2022-08-12T12:08:37.613Z,28.58
2022-08-12T12:09:52.837Z,28.49
2022-08-12T12:10:56.182Z,28.49
2022-08-12T12:11:58.635Z,28.43
2022-08-12T12:13:01.124Z,28.26
2022-08-12T12:14:07.657Z,28.42
2022-08-12T12:15:14.348Z,28.46
2022-08-12T12:16:30.896Z,28.55
2022-08-12T12:17:39.711Z,28.56
2022-08-12T12:18:42.929Z,28.59
2022-08-12T12:19:47.439Z,28.57
2022-08-12T12:20:50.080Z,28.62
2022-08-12T12:21:54.361Z,28.61
2022-08-12T12:22:56.719Z,28.54
2022-08-12T12:24:00.764Z,28.47
2022-08-12T12:25:12.889Z,28.56
2022-08-12T12:26:35.593Z,28.60
2022-08-12T12:28:05.252Z,28.45
2022-08-12T12:30:13.574Z,28.59
2022-08-12T12:30:37.236Z,28.56
2022-08-12T12:32:10.987Z,28.57
2022-08-12T12:33:03.573Z,28.48
2022-08-12T12:34:05.642Z,28.41
2022-08-12T12:35:44.476Z,28.51
2022-08-12T12:36:31.391Z,28.49
2022-08-12T12:38:04.208Z,28.53
2022-08-12T12:39:12.072Z,28.55
2022-08-12T12:40:14.570Z,28.51
2022-08-12T12:41:17.344Z,28.52
2022-08-12T12:42:43.066Z,28.50
2022-08-12T12:43:43.288Z,28.59
2022-08-12T12:44:51.045Z,28.54
2022-08-12T12:45:57.500Z,28.50
2022-08-12T12:47:00.931Z,28.56
2022-08-12T12:48:09.051Z,28.54
2022-08-12T12:49:15.384Z,28.54
2022-08-12T12:50:34.794Z,28.49
2022-08-12T12:51:58.125Z,28.36
2022-08-12T12:53:01.152Z,28.43
2022-08-12T12:54:07.701Z,28.48
2022-08-12T12:55:13.551Z,28.51
2022-08-12T12:56:35.187Z,28.44
2022-08-12T12:58:00.437Z,28.40
2022-08-12T12:59:06.278Z,28.43
2022-08-12T13:00:16.045Z,28.44
2022-08-12T13:01:30.036Z,28.34
2022-08-12T13:02:39.500Z,28.20
2022-08-12T13:03:49.114Z,28.24
2022-08-12T13:04:52.055Z,28.36
2022-08-12T13:06:00.936Z,28.37
2022-08-12T13:07:03.125Z,28.31
2022-08-12T13:08:35.939Z,28.26
2022-08-12T13:09:38.228Z,28.36
2022-08-12T13:10:43.119Z,28.29
2022-08-12T13:11:54.207Z,28.25
2022-08-12T13:14:10.355Z,28.28
2022-08-12T13:14:27.955Z,28.29
2022-08-12T13:15:45.136Z,28.25
2022-08-12T13:16:50.183Z,28.32
2022-08-12T13:18:02.420Z,28.26
2022-08-12T13:19:07.669Z,28.30
2022-08-12T13:20:10.656Z,28.30
2022-08-12T13:21:15.867Z,28.31
2022-08-12T13:22:35.499Z,28.21
2022-08-12T13:23:37.946Z,28.13
2022-08-12T13:24:56.465Z,28.21
2022-08-12T13:25:59.871Z,28.16
2022-08-12T13:27:03.203Z,28.07
2022-08-12T13:28:07.778Z,28.13
2022-08-12T13:29:12.002Z,28.14
2022-08-12T13:30:24.880Z,28.18
2022-08-12T13:31:27.315Z,28.13
2022-08-12T13:32:31.403Z,28.08
2022-08-12T13:34:33.450Z,28.17
2022-08-12T13:35:03.947Z,28.23
2022-08-12T13:36:21.439Z,28.22
2022-08-12T13:37:28.182Z,28.27
2022-08-12T13:38:54.304Z,28.30
2022-08-12T13:39:59.590Z,28.22
2022-08-12T13:41:02.794Z,28.27
2022-08-12T13:42:13.737Z,28.30
2022-08-12T13:43:40.149Z,28.32
2022-08-12T13:44:39.909Z,28.34
2022-08-12T13:45:43.377Z,28.36
2022-08-12T13:46:58.622Z,28.36
2022-08-12T13:48:04.938Z,28.37
2022-08-12T13:49:17.299Z,28.40
2022-08-12T13:50:39.795Z,28.48
2022-08-12T13:51:42.858Z,28.46
2022-08-12T13:52:45.841Z,28.49
2022-08-12T13:53:59.234Z,28.45
2022-08-12T13:55:07.491Z,28.42
2022-08-12T13:56:12.015Z,28.35
2022-08-12T13:57:17.081Z,28.30
2022-08-12T13:58:21.499Z,28.33
2022-08-12T13:59:27.583Z,28.28
2022-08-12T14:00:34.312Z,28.32
2022-08-12T14:01:41.524Z,28.29
2022-08-12T14:02:43.817Z,28.36
2022-08-12T14:03:50.976Z,28.28
2022-08-12T14:04:56.689Z,28.27
2022-08-12T14:05:59.646Z,28.28
2022-08-12T14:07:05.872Z,28.13
2022-08-12T14:08:11.937Z,28.16
2022-08-12T14:09:14.459Z,28.18
2022-08-12T14:10:36.912Z,28.19
2022-08-12T14:11:39.699Z,28.25
2022-08-12T14:12:54.815Z,28.18
2022-08-12T14:14:04.912Z,28.08
2022-08-12T14:15:15.842Z,28.04
2022-08-12T14:16:46.960Z,28.04
2022-08-12T14:17:52.182Z,28.09
2022-08-12T14:18:55.023Z,28.05
2022-08-12T14:20:15.205Z,28.00
2022-08-12T14:21:18.146Z,28.02
2022-08-12T14:22:31.565Z,28.02
2022-08-12T14:24:05.414Z,28.01
2022-08-12T14:25:04.893Z,28.02
2022-08-12T14:26:12.252Z,28.02
2022-08-12T14:28:02.437Z,28.01
2022-08-12T14:28:39.358Z,28.03
2022-08-12T14:30:06.123Z,28.00
2022-08-12T14:31:18.393Z,27.99
2022-08-12T14:32:21.034Z,27.98
2022-08-12T14:33:44.245Z,27.96
2022-08-12T14:34:49.679Z,27.97
2022-08-12T14:35:56.155Z,27.96
2022-08-12T14:37:02.852Z,27.96
2022-08-12T14:38:29.775Z,27.90
2022-08-12T14:39:33.272Z,27.93
2022-08-12T14:40:41.443Z,27.96
2022-08-12T14:41:48.702Z,27.97
2022-08-12T14:42:59.509Z,27.95
2022-08-12T14:44:06.370Z,27.92
2022-08-12T14:45:45.292Z,27.86
2022-08-12T14:48:06.683Z,27.85
2022-08-12T14:49:27.565Z,27.83
2022-08-12T14:50:58.743Z,27.84
2022-08-12T14:52:43.211Z,27.79
2022-08-12T14:57:35.426Z,27.86
2022-08-12T14:59:23.348Z,27.82
2022-08-12T15:00:50.818Z,27.81
2022-08-12T15:02:00.783Z,27.84
2022-08-12T15:03:03.962Z,27.77
2022-08-12T15:04:26.192Z,27.80
2022-08-12T15:06:06.480Z,27.82
2022-08-12T15:06:52.937Z,27.82
2022-08-12T15:08:05.109Z,27.80
2022-08-12T15:09:12.451Z,27.72
2022-08-12T15:10:14.791Z,27.72
2022-08-12T15:11:54.984Z,27.88
2022-08-12T15:12:50.676Z,27.94
2022-08-12T15:13:54.728Z,27.90
2022-08-12T15:14:57.016Z,27.89
2022-08-12T15:16:07.462Z,27.90
2022-08-12T15:17:37.474Z,27.87
2022-08-12T15:18:37.958Z,27.83
2022-08-12T15:20:12.060Z,27.91
2022-08-12T15:22:39.316Z,28.01
2022-08-12T15:23:55.625Z,27.89
2022-08-12T15:24:59.101Z,27.87
2022-08-12T15:26:05.370Z,27.87
2022-08-12T15:27:09.599Z,27.86
2022-08-12T15:28:21.233Z,27.85
2022-08-12T15:29:24.692Z,27.82
2022-08-12T15:30:30.443Z,27.79
2022-08-12T15:32:00.663Z,27.72
2022-08-12T15:34:27.340Z,27.68
2022-08-12T15:35:49.858Z,27.65
2022-08-12T15:36:55.754Z,27.59
2022-08-12T15:38:09.628Z,27.59
2022-08-12T15:39:17.089Z,27.54
2022-08-12T15:40:30.167Z,27.52
2022-08-12T15:41:49.119Z,27.47
2022-08-12T15:42:57.139Z,27.44
2022-08-12T15:44:36.570Z,27.45
2022-08-12T15:45:23.764Z,27.44
2022-08-12T15:46:27.922Z,27.39
2022-08-12T15:47:48.260Z,27.39
2022-08-12T15:48:52.470Z,27.36
2022-08-12T15:50:00.591Z,27.33
2022-08-12T15:51:04.339Z,27.32
2022-08-12T15:52:07.021Z,27.28
2022-08-12T15:53:16.016Z,27.26
2022-08-12T15:54:34.917Z,27.24
2022-08-12T15:55:46.077Z,27.23
2022-08-12T15:56:50.275Z,27.18